createdAt,value
2022-09-06T00:00:58.997Z,59
2022-09-06T00:02:08.349Z,58
2022-09-06T00:03:12.754Z,58
2022-09-06T00:04:17.383Z,58
2022-09-06T00:05:22.232Z,58
2022-09-06T00:06:27.001Z,59
2022-09-06T00:07:31.820Z,59
2022-09-06T00:08:36.725Z,59
2022-09-06T00:09:41.202Z,58
2022-09-06T00:10:45.538Z,59
2022-09-06T00:11:51.013Z,59
2022-09-06T00:12:55.705Z,59
2022-09-06T00:14:08.289Z,58
2022-09-06T00:15:12.793Z,59
2022-09-06T00:16:17.137Z,59
2022-09-06T00:17:21.549Z,59
2022-09-06T00:18:25.901Z,58
2022-09-06T00:19:30.422Z,58
2022-09-06T00:20:35.469Z,58
2022-09-06T00:21:44.040Z,58
2022-09-06T00:22:48.505Z,58
2022-09-06T00:23:53.239Z,59
2022-09-06T00:24:57.708Z,59
2022-09-06T00:26:02.077Z,59
2022-09-06T00:27:07.254Z,59
2022-09-06T00:28:11.969Z,59
2022-09-06T00:29:21.305Z,59
2022-09-06T00:30:25.754Z,59
2022-09-06T00:31:30.268Z,59
2022-09-06T00:32:34.578Z,59
2022-09-06T00:33:39.113Z,59
2022-09-06T00:34:44.237Z,59
2022-09-06T00:35:48.661Z,59
2022-09-06T00:36:53.221Z,59
2022-09-06T00:37:57.931Z,59
2022-09-06T00:39:03.078Z,60
2022-09-06T00:40:07.659Z,60
2022-09-06T00:41:12.201Z,60
2022-09-06T00:42:21.669Z,60
2022-09-06T00:43:26.437Z,60
2022-09-06T00:44:30.845Z,60
2022-09-06T00:45:35.353Z,59
2022-09-06T00:46:39.987Z,59
2022-09-06T00:47:44.811Z,59
2022-09-06T00:48:49.746Z,59
2022-09-06T00:49:58.418Z,59
2022-09-06T00:51:03.607Z,59
2022-09-06T00:52:08.400Z,60
2022-09-06T00:53:13.099Z,60
2022-09-06T00:54:19.927Z,60
2022-09-06T00:55:24.786Z,60
2022-09-06T00:56:30.459Z,60
2022-09-06T00:57:35.952Z,60
2022-09-06T00:58:40.158Z,60
2022-09-06T00:59:44.674Z,60
2022-09-06T01:00:49.330Z,60
2022-09-06T01:01:53.779Z,60
2022-09-06T01:02:58.222Z,60
2022-09-06T01:04:03.014Z,60
2022-09-06T01:05:07.491Z,60
2022-09-06T01:06:12.210Z,60
2022-09-06T01:07:21.802Z,60
2022-09-06T01:08:31.318Z,60
2022-09-06T01:09:41.381Z,60
2022-09-06T01:10:51.326Z,60
2022-09-06T01:12:06.628Z,60
2022-09-06T01:13:19.228Z,60
2022-09-06T01:14:29.318Z,60
2022-09-06T01:15:36.470Z,60
2022-09-06T01:16:48.633Z,60
2022-09-06T01:17:57.934Z,60
2022-09-06T01:19:10.259Z,60
2022-09-06T01:20:26.743Z,60
2022-09-06T01:21:41.405Z,60
2022-09-06T01:22:48.766Z,60
2022-09-06T01:24:00.986Z,60
2022-09-06T01:25:05.306Z,60
2022-09-06T01:26:15.034Z,60
2022-09-06T01:27:24.771Z,60
2022-09-06T01:28:39.318Z,60
2022-09-06T01:29:46.378Z,60
2022-09-06T01:30:58.283Z,60
2022-09-06T01:32:02.554Z,60
2022-09-06T01:33:13.462Z,60
2022-09-06T01:34:18.127Z,60
2022-09-06T01:35:25.422Z,61
2022-09-06T01:36:49.747Z,61
2022-09-06T01:37:53.018Z,61
2022-09-06T01:38:57.466Z,61
2022-09-06T01:40:02.122Z,61
2022-09-06T01:41:06.781Z,61
2022-09-06T01:42:11.290Z,60
2022-09-06T01:43:18.646Z,60
2022-09-06T01:44:23.258Z,60
2022-09-06T01:45:27.702Z,60
2022-09-06T01:46:42.351Z,60
2022-09-06T01:47:47.231Z,60
2022-09-06T01:48:55.142Z,60
2022-09-06T01:50:10.158Z,61
2022-09-06T01:51:27.292Z,61
2022-09-06T01:52:37.131Z,61
2022-09-06T01:53:51.812Z,61
2022-09-06T01:55:01.623Z,60
2022-09-06T01:56:06.606Z,60
2022-09-06T01:57:21.578Z,60
2022-09-06T01:58:36.262Z,60
2022-09-06T01:59:50.851Z,60
2022-09-06T02:01:00.243Z,60
2022-09-06T02:02:10.287Z,60
2022-09-06T02:03:14.911Z,60
2022-09-06T02:04:24.639Z,60
2022-09-06T02:05:34.198Z,60
2022-09-06T02:06:38.531Z,60
2022-09-06T02:07:52.182Z,60
2022-09-06T02:08:56.502Z,61
2022-09-06T02:10:09.046Z,61
2022-09-06T02:11:23.014Z,60
2022-09-06T02:12:27.437Z,60
2022-09-06T02:13:33.366Z,60
2022-09-06T02:14:45.494Z,61
2022-09-06T02:17:01.743Z,61
2022-09-06T02:18:06.170Z,61
2022-09-06T02:19:11.310Z,61
2022-09-06T02:20:16.135Z,61
2022-09-06T02:21:20.687Z,61
2022-09-06T02:22:25.531Z,61
2022-09-06T02:23:29.974Z,61
2022-09-06T02:24:36.110Z,61
2022-09-06T02:25:41.330Z,61
2022-09-06T02:26:52.670Z,61
2022-09-06T02:27:57.098Z,61
2022-09-06T02:29:01.663Z,61
2022-09-06T02:30:06.579Z,61
2022-09-06T02:31:12.234Z,61
2022-09-06T02:32:19.775Z,61
2022-09-06T02:33:24.246Z,61
2022-09-06T02:34:29.602Z,61
2022-09-06T02:35:47.666Z,61
2022-09-06T02:36:59.263Z,61
2022-09-06T02:38:08.662Z,61
2022-09-06T02:39:13.574Z,61
2022-09-06T02:40:18.166Z,61
2022-09-06T02:41:24.062Z,61
2022-09-06T02:42:29.215Z,61
2022-09-06T02:43:34.610Z,61
2022-09-06T02:44:39.222Z,61
2022-09-06T02:45:44.458Z,61
2022-09-06T02:46:51.007Z,61
2022-09-06T02:47:55.646Z,61
2022-09-06T02:49:00.289Z,61
2022-09-06T02:50:04.754Z,62
2022-09-06T02:51:09.254Z,62
2022-09-06T02:52:13.750Z,62
2022-09-06T02:53:18.210Z,62
2022-09-06T02:54:23.224Z,62
2022-09-06T02:55:27.689Z,62
2022-09-06T02:56:32.491Z,62
2022-09-06T02:57:37.194Z,62
2022-09-06T02:58:45.592Z,62
2022-09-06T02:59:50.747Z,62
2022-09-06T03:00:55.671Z,62
2022-09-06T03:02:00.417Z,62
2022-09-06T03:03:04.982Z,62
2022-09-06T03:04:09.578Z,62
2022-09-06T03:05:14.142Z,62
2022-09-06T03:06:18.870Z,62
2022-09-06T03:07:23.719Z,62
2022-09-06T03:08:28.385Z,62
2022-09-06T03:09:35.579Z,62
2022-09-06T03:10:40.059Z,62
2022-09-06T03:11:53.970Z,63
2022-09-06T03:12:58.663Z,62
2022-09-06T03:14:03.361Z,63
2022-09-06T03:15:08.045Z,63
2022-09-06T03:16:13.125Z,63
2022-09-06T03:17:22.738Z,63
2022-09-06T03:18:27.506Z,63
2022-09-06T03:19:34.622Z,63
2022-09-06T03:20:39.086Z,63
2022-09-06T03:21:43.732Z,63
2022-09-06T03:22:48.302Z,63
2022-09-06T03:23:52.925Z,63
2022-09-06T03:24:57.267Z,63
2022-09-06T03:26:01.595Z,63
2022-09-06T03:27:06.229Z,63
2022-09-06T03:28:10.566Z,63
2022-09-06T03:29:14.858Z,63
2022-09-06T03:30:19.510Z,63
2022-09-06T03:31:24.002Z,63
2022-09-06T03:32:28.490Z,63
2022-09-06T03:33:37.273Z,63
2022-09-06T03:34:41.794Z,63
2022-09-06T03:35:46.258Z,63
2022-09-06T03:36:56.209Z,63
2022-09-06T03:38:00.678Z,63
2022-09-06T03:39:05.525Z,63
2022-09-06T03:40:10.513Z,63
2022-09-06T03:41:15.185Z,63
2022-09-06T03:42:19.586Z,63
2022-09-06T03:43:24.121Z,63
2022-09-06T03:44:28.529Z,63
2022-09-06T03:45:33.857Z,64
2022-09-06T03:46:38.363Z,64
2022-09-06T03:47:43.213Z,64
2022-09-06T03:48:50.830Z,63
2022-09-06T03:49:56.370Z,63
2022-09-06T03:51:01.005Z,63
2022-09-06T03:52:05.462Z,63
2022-09-06T03:53:10.037Z,63
2022-09-06T03:54:14.830Z,64
2022-09-06T03:55:21.201Z,64
2022-09-06T03:56:25.934Z,64
2022-09-06T03:57:30.302Z,64
2022-09-06T03:58:35.353Z,64
2022-09-06T03:59:39.785Z,64
2022-09-06T04:00:44.115Z,64
2022-09-06T04:01:48.787Z,64
2022-09-06T04:02:53.407Z,64
2022-09-06T04:03:59.194Z,64
2022-09-06T04:05:03.790Z,65
2022-09-06T04:06:08.395Z,64
2022-09-06T04:07:12.730Z,64
2022-09-06T04:08:16.900Z,64
2022-09-06T04:09:21.314Z,64
2022-09-06T04:10:25.650Z,64
2022-09-06T04:11:29.994Z,65
2022-09-06T04:12:34.298Z,65
2022-09-06T04:13:38.798Z,65
2022-09-06T04:14:44.937Z,65
2022-09-06T04:15:49.734Z,65
2022-09-06T04:16:54.342Z,65
2022-09-06T04:17:59.177Z,65
2022-09-06T04:19:03.534Z,65
2022-09-06T04:20:07.873Z,65
2022-09-06T04:21:12.086Z,65
2022-09-06T04:22:16.490Z,65
2022-09-06T04:23:20.993Z,65
2022-09-06T04:25:29.002Z,65
2022-09-06T04:26:33.384Z,65
2022-09-06T04:27:38.014Z,65
2022-09-06T04:28:43.001Z,65
2022-09-06T04:29:47.688Z,65
2022-09-06T04:30:53.481Z,65
2022-09-06T04:32:01.008Z,65
2022-09-06T04:33:05.654Z,65
2022-09-06T04:34:10.306Z,65
2022-09-06T04:35:15.172Z,65
2022-09-06T04:36:20.208Z,65
2022-09-06T04:37:24.954Z,64
2022-09-06T04:38:29.915Z,65
2022-09-06T04:39:39.522Z,65
2022-09-06T04:40:44.498Z,65
2022-09-06T04:41:49.438Z,65
2022-09-06T04:42:54.379Z,65
2022-09-06T04:43:59.134Z,65
2022-09-06T04:45:04.666Z,65
2022-09-06T04:46:09.874Z,65
2022-09-06T04:47:17.148Z,65
2022-09-06T04:48:22.144Z,65
2022-09-06T04:49:26.687Z,65
2022-09-06T04:50:31.167Z,65
2022-09-06T04:51:38.450Z,65
2022-09-06T04:52:42.770Z,65
2022-09-06T04:53:49.190Z,65
2022-09-06T04:55:57.845Z,65
2022-09-06T04:57:05.255Z,65
2022-09-06T04:58:09.874Z,65
2022-09-06T04:59:14.310Z,65
2022-09-06T05:00:18.741Z,65
2022-09-06T05:01:23.173Z,65
2022-09-06T05:02:27.911Z,65
2022-09-06T05:03:32.541Z,65
2022-09-06T05:04:37.094Z,65
2022-09-06T05:05:41.830Z,66
2022-09-06T05:06:46.954Z,66
2022-09-06T05:07:51.766Z,66
2022-09-06T05:08:56.334Z,66
2022-09-06T05:10:00.702Z,66
2022-09-06T05:11:05.445Z,66
2022-09-06T05:12:09.978Z,66
2022-09-06T05:13:16.922Z,65
2022-09-06T05:14:21.418Z,65
2022-09-06T05:15:25.673Z,65
2022-09-06T05:16:30.479Z,65
2022-09-06T05:17:34.766Z,65
2022-09-06T05:18:39.250Z,65
2022-09-06T05:19:43.890Z,65
2022-09-06T05:20:49.773Z,66
2022-09-06T05:21:55.761Z,66
2022-09-06T05:23:00.265Z,66
2022-09-06T05:24:04.826Z,66
2022-09-06T05:25:09.421Z,65
2022-09-06T05:26:14.010Z,65
2022-09-06T05:27:19.894Z,65
2022-09-06T05:28:24.328Z,65
2022-09-06T05:29:30.558Z,65
2022-09-06T05:30:33.078Z,65
2022-09-06T05:31:37.769Z,64
2022-09-06T05:32:42.599Z,64
2022-09-06T05:33:47.334Z,65
2022-09-06T05:34:52.211Z,65
2022-09-06T05:35:57.082Z,64
2022-09-06T05:37:01.653Z,64
2022-09-06T05:38:06.254Z,64
2022-09-06T05:39:10.794Z,65
2022-09-06T05:40:19.978Z,64
2022-09-06T05:41:24.441Z,64
2022-09-06T05:42:29.034Z,63
2022-09-06T05:43:33.309Z,64
2022-09-06T05:44:37.917Z,63
2022-09-06T05:45:42.418Z,63
2022-09-06T05:46:47.893Z,63
2022-09-06T05:47:52.374Z,63
2022-09-06T05:49:00.137Z,64
2022-09-06T05:50:04.534Z,63
2022-09-06T05:51:09.613Z,63
2022-09-06T05:52:14.285Z,63
2022-09-06T05:53:18.912Z,63
2022-09-06T05:54:23.294Z,63
2022-09-06T05:55:27.685Z,63
2022-09-06T05:56:31.921Z,63
2022-09-06T05:57:36.550Z,62
2022-09-06T05:58:41.506Z,62
2022-09-06T05:59:46.251Z,62
2022-09-06T06:00:50.654Z,62
2022-09-06T06:01:55.177Z,62
2022-09-06T06:03:02.341Z,62
2022-09-06T06:04:06.774Z,62
2022-09-06T06:05:11.476Z,62
2022-09-06T06:06:16.249Z,62
2022-09-06T06:07:23.431Z,62
2022-09-06T06:08:27.812Z,63
2022-09-06T06:09:32.162Z,63
2022-09-06T06:10:38.557Z,63
2022-09-06T06:11:40.765Z,63
2022-09-06T06:12:45.097Z,63
2022-09-06T06:13:49.481Z,63
2022-09-06T06:14:54.017Z,62
2022-09-06T06:15:58.383Z,62
2022-09-06T06:17:03.245Z,62
2022-09-06T06:18:07.713Z,62
2022-09-06T06:19:11.977Z,62
2022-09-06T06:20:16.405Z,61
2022-09-06T06:21:20.773Z,62
2022-09-06T06:22:27.473Z,61
2022-09-06T06:23:31.958Z,61
2022-09-06T06:24:37.521Z,61
2022-09-06T06:25:42.636Z,61
2022-09-06T06:26:47.261Z,60
2022-09-06T06:27:51.692Z,60
2022-09-06T06:28:56.045Z,60
2022-09-06T06:30:00.546Z,60
2022-09-06T06:31:05.081Z,60
2022-09-06T06:32:09.618Z,60
2022-09-06T06:33:14.034Z,60
2022-09-06T06:34:23.337Z,60
2022-09-06T06:35:28.729Z,60
2022-09-06T06:36:33.006Z,61
2022-09-06T06:37:37.250Z,61
2022-09-06T06:39:45.566Z,61
2022-09-06T06:40:51.177Z,60
2022-09-06T06:41:55.293Z,60
2022-09-06T06:43:18.757Z,60
2022-09-06T06:44:23.421Z,61
2022-09-06T06:45:28.478Z,60
2022-09-06T06:46:34.457Z,60
2022-09-06T06:47:38.794Z,61
2022-09-06T06:48:43.096Z,61
2022-09-06T06:49:47.479Z,60
2022-09-06T06:51:55.553Z,61
2022-09-06T06:52:59.774Z,61
2022-09-06T06:54:04.513Z,61
2022-09-06T06:55:08.788Z,61
2022-09-06T06:56:13.055Z,61
2022-09-06T06:57:21.468Z,61
2022-09-06T06:58:26.292Z,61
2022-09-06T06:59:31.310Z,61
2022-09-06T07:00:35.956Z,61
2022-09-06T07:01:41.861Z,60
2022-09-06T07:02:46.009Z,60
2022-09-06T07:03:50.813Z,60
2022-09-06T07:04:55.078Z,60
2022-09-06T07:06:15.123Z,60
2022-09-06T07:08:08.654Z,60
2022-09-06T07:09:12.996Z,60
2022-09-06T07:10:33.002Z,60
2022-09-06T07:11:23.017Z,60
2022-09-06T07:12:26.302Z,60
2022-09-06T07:13:30.539Z,61
2022-09-06T07:14:34.800Z,61
2022-09-06T07:15:39.358Z,61
2022-09-06T07:16:44.378Z,61
2022-09-06T07:18:53.033Z,61
2022-09-06T07:20:13.254Z,61
2022-09-06T07:22:09.437Z,61
2022-09-06T07:24:16.377Z,61
2022-09-06T07:25:21.769Z,61
2022-09-06T07:26:26.510Z,61
2022-09-06T07:27:46.468Z,61
2022-09-06T07:28:35.902Z,61
2022-09-06T07:29:40.313Z,62
2022-09-06T07:30:45.374Z,61
2022-09-06T07:32:54.485Z,61
2022-09-06T07:34:01.686Z,61
2022-09-06T07:35:06.291Z,61
2022-09-06T07:36:10.862Z,60
2022-09-06T07:37:15.921Z,60
2022-09-06T07:38:20.521Z,61
2022-09-06T07:39:27.145Z,61
2022-09-06T07:40:32.261Z,60
2022-09-06T07:41:36.737Z,61
2022-09-06T07:42:41.585Z,61
2022-09-06T07:43:46.475Z,60
2022-09-06T07:44:50.821Z,61
2022-09-06T07:45:55.534Z,60
2022-09-06T07:48:04.421Z,60
2022-09-06T07:49:09.305Z,61
2022-09-06T07:51:18.306Z,61
2022-09-06T07:53:30.978Z,61
2022-09-06T07:54:31.796Z,61
2022-09-06T07:55:36.165Z,61
2022-09-06T07:56:40.629Z,61
2022-09-06T07:57:45.116Z,62
2022-09-06T07:58:49.529Z,62
2022-09-06T07:59:54.201Z,62
2022-09-06T08:00:58.731Z,62
2022-09-06T08:02:13.628Z,62
2022-09-06T08:03:17.901Z,61
2022-09-06T08:04:22.185Z,61
2022-09-06T08:06:30.324Z,61
2022-09-06T08:07:38.759Z,61
2022-09-06T08:08:58.824Z,60
2022-09-06T08:09:47.493Z,60
2022-09-06T08:10:52.425Z,60
2022-09-06T08:11:57.197Z,60
2022-09-06T08:13:01.597Z,60
2022-09-06T08:14:06.501Z,60
2022-09-06T08:15:11.269Z,60
2022-09-06T08:16:15.827Z,60
2022-09-06T08:17:20.385Z,60
2022-09-06T08:18:24.861Z,59
2022-09-06T08:19:29.361Z,59
2022-09-06T08:20:33.957Z,60
2022-09-06T08:21:38.689Z,60
2022-09-06T08:22:43.077Z,60
2022-09-06T08:23:47.985Z,60
2022-09-06T08:24:52.281Z,60
2022-09-06T08:25:56.806Z,60
2022-09-06T08:27:01.341Z,61
2022-09-06T08:28:05.853Z,61
2022-09-06T08:29:10.401Z,60
2022-09-06T08:30:16.350Z,60
2022-09-06T08:31:20.672Z,60
2022-09-06T08:32:25.693Z,60
2022-09-06T08:33:30.194Z,60
2022-09-06T08:34:34.596Z,60
2022-09-06T08:35:39.254Z,59
2022-09-06T08:36:43.601Z,60
2022-09-06T08:37:47.893Z,60
2022-09-06T08:38:53.293Z,61
2022-09-06T08:39:58.938Z,61
2022-09-06T08:41:04.489Z,60
2022-09-06T08:42:13.989Z,60
2022-09-06T08:43:18.258Z,60
2022-09-06T08:45:27.737Z,60
2022-09-06T08:46:32.453Z,61
2022-09-06T08:47:40.066Z,60
2022-09-06T08:48:44.405Z,60
2022-09-06T08:49:49.083Z,60
2022-09-06T08:51:01.689Z,61
2022-09-06T08:52:08.618Z,61
2022-09-06T08:53:18.539Z,61
2022-09-06T08:54:22.894Z,61
2022-09-06T08:55:32.965Z,60
2022-09-06T08:56:37.389Z,60
2022-09-06T08:57:49.505Z,60
2022-09-06T08:59:02.330Z,60
2022-09-06T09:00:06.789Z,60
2022-09-06T09:01:11.338Z,60
2022-09-06T09:02:18.491Z,60
2022-09-06T09:03:22.901Z,60
2022-09-06T09:04:37.209Z,60
2022-09-06T09:05:46.609Z,60
2022-09-06T09:06:50.898Z,61
2022-09-06T09:07:55.229Z,60
2022-09-06T09:09:04.845Z,60
2022-09-06T09:10:09.953Z,61
2022-09-06T09:11:16.830Z,61
2022-09-06T09:12:21.471Z,60
2022-09-06T09:13:25.913Z,60
2022-09-06T09:14:33.190Z,59
2022-09-06T09:15:40.312Z,59
2022-09-06T09:16:42.187Z,59
2022-09-06T09:17:46.501Z,59
2022-09-06T09:18:50.730Z,59
2022-09-06T09:19:58.121Z,59
2022-09-06T09:21:02.990Z,59
2022-09-06T09:22:07.561Z,59
2022-09-06T09:23:12.897Z,59
2022-09-06T09:24:17.417Z,59
2022-09-06T09:25:21.980Z,58
2022-09-06T09:26:26.389Z,58
2022-09-06T09:27:30.969Z,58
2022-09-06T09:28:35.628Z,58
2022-09-06T09:29:41.048Z,58
2022-09-06T09:30:54.833Z,57
2022-09-06T09:31:59.761Z,58
2022-09-06T09:33:04.262Z,58
2022-09-06T09:34:15.143Z,58
2022-09-06T09:35:29.706Z,58
2022-09-06T09:36:34.430Z,57
2022-09-06T09:37:46.202Z,57
2022-09-06T09:38:43.852Z,57
2022-09-06T09:39:48.635Z,56
2022-09-06T09:40:57.229Z,57
2022-09-06T09:42:04.199Z,58
2022-09-06T09:43:08.643Z,56
2022-09-06T09:44:17.385Z,56
2022-09-06T09:45:21.827Z,57
2022-09-06T09:46:26.385Z,57
2022-09-06T09:47:36.792Z,57
2022-09-06T09:48:41.860Z,57
2022-09-06T09:49:56.627Z,56
2022-09-06T09:51:05.511Z,57
2022-09-06T09:52:20.383Z,57
2022-09-06T09:53:24.965Z,57
2022-09-06T09:54:29.848Z,57
2022-09-06T09:55:34.656Z,56
2022-09-06T09:56:38.915Z,56
2022-09-06T09:57:48.555Z,55
2022-09-06T09:58:54.023Z,56
2022-09-06T09:59:58.676Z,56
2022-09-06T10:01:04.067Z,56
2022-09-06T10:02:11.723Z,56
2022-09-06T10:03:24.535Z,55
2022-09-06T10:04:44.978Z,54
2022-09-06T10:05:34.792Z,54
2022-09-06T10:07:43.580Z,54
2022-09-06T10:08:50.692Z,54
2022-09-06T10:09:55.223Z,53
2022-09-06T10:11:02.959Z,53
2022-09-06T10:12:07.365Z,53
2022-09-06T10:13:19.783Z,53
2022-09-06T10:14:24.771Z,52
2022-09-06T10:15:34.819Z,52
2022-09-06T10:16:39.415Z,52
2022-09-06T10:17:46.771Z,52
2022-09-06T10:18:51.169Z,52
2022-09-06T10:19:56.055Z,52
2022-09-06T10:21:01.831Z,52
2022-09-06T10:22:06.122Z,51
2022-09-06T10:24:34.283Z,51
2022-09-06T10:25:42.995Z,51
2022-09-06T10:26:46.171Z,51
2022-09-06T10:28:10.297Z,52
2022-09-06T10:29:10.375Z,51
2022-09-06T10:30:14.883Z,51
2022-09-06T10:32:32.934Z,51
2022-09-06T10:33:40.802Z,50
2022-09-06T10:34:50.304Z,51
2022-09-06T10:36:02.926Z,49
2022-09-06T10:37:07.574Z,49
2022-09-06T10:38:22.368Z,50
2022-09-06T10:39:29.549Z,49
2022-09-06T10:40:46.310Z,48
2022-09-06T10:41:59.574Z,49
2022-09-06T10:43:06.839Z,50
2022-09-06T10:44:11.353Z,50
2022-09-06T10:45:21.795Z,48
2022-09-06T10:46:29.831Z,49
2022-09-06T10:47:34.171Z,48
2022-09-06T10:48:38.778Z,48
2022-09-06T10:49:43.631Z,49
2022-09-06T10:50:50.752Z,48
2022-09-06T10:51:55.095Z,49
2022-09-06T10:52:59.895Z,49
2022-09-06T10:54:15.080Z,49
2022-09-06T10:55:22.880Z,50
2022-09-06T10:56:27.696Z,49
2022-09-06T10:59:51.493Z,47
2022-09-06T11:00:58.890Z,48
2022-09-06T11:02:03.711Z,48
2022-09-06T11:04:18.178Z,47
2022-09-06T11:06:34.446Z,47
2022-09-06T11:07:39.420Z,47
2022-09-06T11:09:55.767Z,47
2022-09-06T11:11:05.546Z,47
2022-09-06T11:12:18.078Z,47
2022-09-06T11:13:30.574Z,47
2022-09-06T11:14:35.070Z,47
2022-09-06T11:15:39.349Z,47
2022-09-06T11:16:51.419Z,47
2022-09-06T11:17:55.762Z,47
2022-09-06T11:19:08.142Z,47
2022-09-06T11:20:12.814Z,47
2022-09-06T11:21:20.191Z,47
2022-09-06T11:22:35.150Z,48
2022-09-06T11:23:41.098Z,47
2022-09-06T11:24:55.590Z,47
2022-09-06T11:26:10.347Z,47
2022-09-06T11:27:24.754Z,47
2022-09-06T11:28:33.490Z,47
2022-09-06T11:29:41.443Z,47
2022-09-06T11:30:45.855Z,47
2022-09-06T11:32:56.423Z,47
2022-09-06T11:34:10.958Z,48
2022-09-06T11:35:20.876Z,47
2022-09-06T11:36:28.134Z,47
2022-09-06T11:37:35.470Z,48
2022-09-06T11:38:40.487Z,46
2022-09-06T11:40:49.874Z,47
2022-09-06T11:41:59.270Z,47
2022-09-06T11:43:04.598Z,46
2022-09-06T11:44:09.720Z,47
2022-09-06T11:45:14.178Z,47
2022-09-06T11:46:22.163Z,46
2022-09-06T11:47:34.870Z,45
2022-09-06T11:48:39.638Z,46
2022-09-06T11:49:49.382Z,45
2022-09-06T11:50:54.306Z,45
2022-09-06T11:52:05.222Z,46
2022-09-06T11:53:21.809Z,45
2022-09-06T11:54:29.835Z,45
2022-09-06T11:55:39.914Z,45
2022-09-06T11:56:47.174Z,45
2022-09-06T11:57:51.554Z,45
2022-09-06T11:58:56.018Z,45
2022-09-06T12:00:00.285Z,45
2022-09-06T12:01:04.890Z,46
2022-09-06T12:02:14.995Z,45
2022-09-06T12:04:36.605Z,46
2022-09-06T12:05:51.238Z,46
2022-09-06T12:07:05.885Z,45
2022-09-06T12:08:10.558Z,46
2022-09-06T12:09:15.382Z,46
2022-09-06T12:10:30.218Z,46
2022-09-06T12:11:40.357Z,46
2022-09-06T12:12:45.437Z,46
2022-09-06T12:13:49.909Z,46
2022-09-06T12:15:00.021Z,47
2022-09-06T12:16:14.708Z,46
2022-09-06T12:17:19.134Z,45
2022-09-06T12:18:23.747Z,45
2022-09-06T12:19:36.050Z,45
2022-09-06T12:20:50.873Z,45
2022-09-06T12:21:56.083Z,45
2022-09-06T12:23:00.553Z,45
2022-09-06T12:24:05.294Z,45
2022-09-06T12:25:14.634Z,46
2022-09-06T12:26:29.094Z,46
2022-09-06T12:27:43.944Z,47
2022-09-06T12:28:55.202Z,46
2022-09-06T12:30:00.187Z,45
2022-09-06T12:31:05.347Z,45
2022-09-06T12:32:20.342Z,45
2022-09-06T12:33:25.413Z,44
2022-09-06T12:34:32.542Z,43
2022-09-06T12:36:41.558Z,44
2022-09-06T12:37:54.370Z,44
2022-09-06T12:38:59.122Z,43
2022-09-06T12:40:09.000Z,43
2022-09-06T12:41:13.798Z,44
2022-09-06T12:42:18.424Z,44
2022-09-06T12:43:23.095Z,43
2022-09-06T12:44:27.734Z,43
2022-09-06T12:45:32.015Z,43
2022-09-06T12:46:36.181Z,43
2022-09-06T12:47:40.566Z,43
2022-09-06T12:48:46.086Z,43
2022-09-06T12:50:00.694Z,44
2022-09-06T12:51:11.714Z,44
2022-09-06T12:52:20.998Z,44
2022-09-06T12:53:26.314Z,44
2022-09-06T12:54:30.662Z,44
2022-09-06T12:55:36.790Z,44
2022-09-06T12:56:41.375Z,44
2022-09-06T12:57:45.850Z,44
2022-09-06T12:58:50.099Z,43
2022-09-06T12:59:54.614Z,44
2022-09-06T13:01:00.286Z,44
2022-09-06T13:02:04.639Z,43
2022-09-06T13:03:09.760Z,44
2022-09-06T13:04:19.271Z,44
2022-09-06T13:05:28.834Z,44
2022-09-06T13:06:33.570Z,44
2022-09-06T13:07:40.647Z,44
2022-09-06T13:08:45.721Z,44
2022-09-06T13:09:50.018Z,43
2022-09-06T13:10:54.275Z,43
2022-09-06T13:11:58.387Z,43
2022-09-06T13:13:06.338Z,43
2022-09-06T13:14:14.155Z,43
2022-09-06T13:15:18.166Z,44
2022-09-06T13:16:30.363Z,43
2022-09-06T13:17:34.598Z,43
2022-09-06T13:18:39.747Z,43
2022-09-06T13:19:43.918Z,43
2022-09-06T13:20:48.310Z,43
2022-09-06T13:21:59.322Z,44
2022-09-06T13:23:03.686Z,43
2022-09-06T13:24:11.307Z,43
2022-09-06T13:25:20.771Z,43
2022-09-06T13:26:23.642Z,43
2022-09-06T13:27:33.232Z,43
2022-09-06T13:28:37.749Z,43
2022-09-06T13:29:42.126Z,43
2022-09-06T13:30:49.708Z,43
2022-09-06T13:31:51.486Z,43
2022-09-06T13:32:57.402Z,43
2022-09-06T13:34:02.185Z,43
2022-09-06T13:35:07.093Z,43
2022-09-06T13:36:11.821Z,43
2022-09-06T13:37:16.498Z,44
2022-09-06T13:38:21.337Z,43
2022-09-06T13:39:35.905Z,43
2022-09-06T13:41:06.659Z,43
2022-09-06T13:41:47.581Z,44
2022-09-06T13:42:57.115Z,44
2022-09-06T13:44:01.698Z,45
2022-09-06T13:45:16.343Z,44
2022-09-06T13:46:29.392Z,45
2022-09-06T13:47:33.748Z,45
2022-09-06T13:48:38.889Z,45
2022-09-06T13:49:44.398Z,45
2022-09-06T13:50:49.507Z,44
2022-09-06T13:51:53.954Z,44
2022-09-06T13:52:59.398Z,44
2022-09-06T13:54:03.638Z,44
2022-09-06T13:55:08.476Z,44
2022-09-06T13:56:15.462Z,44
2022-09-06T13:57:24.275Z,43
2022-09-06T13:58:25.143Z,44
2022-09-06T13:59:31.034Z,44
2022-09-06T14:00:36.054Z,44
2022-09-06T14:01:41.605Z,44
2022-09-06T14:02:50.369Z,44
2022-09-06T14:03:54.737Z,44
2022-09-06T14:04:59.337Z,44
2022-09-06T14:06:06.526Z,44
2022-09-06T14:07:15.123Z,44
2022-09-06T14:08:20.250Z,44
2022-09-06T14:09:24.758Z,44
2022-09-06T14:10:29.222Z,43
2022-09-06T14:11:33.913Z,43
2022-09-06T14:12:42.589Z,44
2022-09-06T14:13:53.202Z,46
2022-09-06T14:15:02.037Z,44
2022-09-06T14:16:06.729Z,44
2022-09-06T14:17:11.054Z,44
2022-09-06T14:18:15.178Z,44
2022-09-06T14:19:19.494Z,44
2022-09-06T14:20:24.074Z,44
2022-09-06T14:21:28.750Z,45
2022-09-06T14:22:33.926Z,45
2022-09-06T14:23:38.619Z,45
2022-09-06T14:24:43.334Z,44
2022-09-06T14:25:47.862Z,44
2022-09-06T14:27:02.354Z,44
2022-09-06T14:28:07.422Z,45
2022-09-06T14:29:11.913Z,44
2022-09-06T14:30:16.191Z,45
2022-09-06T14:31:20.732Z,45
2022-09-06T14:32:29.007Z,44
2022-09-06T14:33:33.962Z,44
2022-09-06T14:34:39.610Z,44
2022-09-06T14:35:43.826Z,44
2022-09-06T14:36:48.082Z,44
2022-09-06T14:37:52.990Z,44
2022-09-06T14:38:58.146Z,44
2022-09-06T14:40:02.719Z,45
2022-09-06T14:41:26.181Z,45
2022-09-06T14:42:30.506Z,45
2022-09-06T14:43:34.668Z,45
2022-09-06T14:44:45.150Z,45
2022-09-06T14:45:56.167Z,45
2022-09-06T14:47:06.174Z,44
2022-09-06T14:49:14.278Z,45
2022-09-06T14:50:19.218Z,45
2022-09-06T14:51:24.193Z,45
2022-09-06T14:52:28.478Z,45
2022-09-06T14:53:40.474Z,45
2022-09-06T14:54:41.140Z,45
2022-09-06T14:55:46.189Z,45
2022-09-06T14:56:52.482Z,45
2022-09-06T14:58:10.038Z,45
2022-09-06T14:59:18.485Z,46
2022-09-06T15:00:25.022Z,46
2022-09-06T15:01:34.320Z,45
2022-09-06T15:02:35.337Z,45
2022-09-06T15:03:47.329Z,46
2022-09-06T15:04:53.226Z,45
2022-09-06T15:05:58.653Z,45
2022-09-06T15:07:03.213Z,45
2022-09-06T15:08:10.586Z,45
2022-09-06T15:09:15.146Z,45
2022-09-06T15:10:19.950Z,46
2022-09-06T15:11:24.218Z,46
2022-09-06T15:12:40.353Z,46
2022-09-06T15:13:44.800Z,46
2022-09-06T15:14:49.094Z,46
2022-09-06T15:15:55.022Z,46
2022-09-06T15:17:01.815Z,46
2022-09-06T15:18:07.978Z,46
2022-09-06T15:19:12.430Z,47
2022-09-06T15:20:16.845Z,47
2022-09-06T15:21:21.229Z,47
2022-09-06T15:22:25.538Z,46
2022-09-06T15:23:29.814Z,46
2022-09-06T15:24:34.270Z,47
2022-09-06T15:25:39.154Z,46
2022-09-06T15:26:53.012Z,47
2022-09-06T15:27:58.082Z,47
2022-09-06T15:29:20.909Z,47
2022-09-06T15:30:46.592Z,47
2022-09-06T15:33:30.143Z,47
2022-09-06T15:34:34.338Z,46
2022-09-06T15:35:41.494Z,47
2022-09-06T15:36:45.870Z,47
2022-09-06T15:37:50.197Z,47
2022-09-06T15:38:55.061Z,47
2022-09-06T15:39:59.392Z,47
2022-09-06T15:41:07.410Z,47
2022-09-06T15:42:11.090Z,47
2022-09-06T15:43:15.669Z,47
2022-09-06T15:44:27.509Z,47
2022-09-06T15:46:06.060Z,47
2022-09-06T15:47:31.003Z,47
2022-09-06T15:52:17.762Z,47
2022-09-06T15:53:22.065Z,48
2022-09-06T15:54:40.074Z,47
2022-09-06T15:56:18.134Z,47
2022-09-06T15:58:12.154Z,47
2022-09-06T16:00:19.426Z,47
2022-09-06T16:02:06.162Z,48
2022-09-06T16:03:37.474Z,48
2022-09-06T16:05:09.442Z,48
2022-09-06T16:08:02.110Z,48
2022-09-06T16:09:10.608Z,48
2022-09-06T16:11:13.937Z,49
2022-09-06T16:13:08.214Z,48
2022-09-06T16:16:05.573Z,48
2022-09-06T16:17:46.764Z,49
2022-09-06T16:20:02.381Z,49
2022-09-06T16:21:38.690Z,49
2022-09-06T16:23:18.417Z,49
2022-09-06T16:24:24.602Z,49
2022-09-06T16:25:40.953Z,49
2022-09-06T16:27:04.961Z,50
2022-09-06T16:28:31.288Z,49
2022-09-06T16:29:35.605Z,49
2022-09-06T16:30:40.779Z,49
2022-09-06T16:31:45.906Z,49
2022-09-06T16:37:17.021Z,50
2022-09-06T16:39:24.766Z,50
2022-09-06T16:40:29.521Z,51
2022-09-06T16:51:55.497Z,52